PWSweather.com
Personal Weather Stations
Station Observations
WATERF01
WaterfordIE

WaterfordIE

Lat: 52.2412507, Lon: -7.1414691

Elevation: 65

Station Type: Davis Vantage Vue

Latest ConditionsUpdated 1:50:01 PM GMT Sunday, Sep 25, 2016
Currently Today's Max Today's Min Today's Average
Temperature 61.1°F16.2°C 61.9°F16.6°C 49.4°F9.7°C 54.3°F12.4°C
Dew Point 46.7°F8.2°C 52.0°F11.1°C 46.7°F8.2°C 48.7°F9.3°C
Winds 12.7 mph WNW20.4 kmh WNW 12.7 mph WNW20.4 kmh WNW - 5.7 mph 9.2 kmh
Wind Gusts 16.1 mph25.9 kmh 19.6 mph31.5 kmh - -
Humidity 59% 91% 59% 82%
Pressure 29.89 in1012.2 mb 29.89 in1012.2 mb 29.64 in1003.7 mb -
Hour Temp Dew Point Humidity Winds Wind Gusts Pressure Precip Precip Rate Daily Precip Total
01:50 PM 61.1°F16.2°C 46.7°F8.2°C 59% 12.7 mph WNW20.4 kmh WNW 16.1 mph25.9 kmh 29.89 in1012.2 mb - 0.00 in0.0 mm 0.00 in0.0 mm
01:40 PM 61.5°F16.4°C 48.8°F9.3°C 63% 9.2 mph WSW14.8 kmh WSW 12.7 mph20.4 kmh 29.89 in1012.2 mb - 0.00 in0.0 mm 0.00 in0.0 mm
01:30 PM 61.9°F16.6°C 49.1°F9.5°C 63% 8.1 mph WSW13.0 kmh WSW 15.0 mph24.1 kmh 29.89 in1012.2 mb - 0.00 in0.0 mm 0.00 in0.0 mm
01:20 PM 61.6°F16.4°C 48.9°F9.4°C 63% 9.2 mph W14.8 kmh W 16.1 mph25.9 kmh 29.89 in1012.2 mb - 0.00 in0.0 mm 0.00 in0.0 mm
01:10 PM 61.7°F16.5°C 49.0°F9.4°C 63% 9.2 mph W14.8 kmh W 15.0 mph24.1 kmh 29.89 in1012.2 mb - 0.00 in0.0 mm 0.00 in0.0 mm
01:00 PM 61.8°F16.6°C 48.6°F9.2°C 62% 12.7 mph WSW20.4 kmh WSW 18.4 mph29.6 kmh 29.89 in1012.2 mb - 0.00 in0.0 mm 0.00 in0.0 mm
12:50 PM 61.6°F16.4°C 49.3°F9.6°C 64% 9.2 mph W14.8 kmh W 16.1 mph25.9 kmh 29.89 in1012.2 mb - 0.00 in0.0 mm 0.00 in0.0 mm
12:40 PM 61.7°F16.5°C 48.6°F9.2°C 62% 12.7 mph W20.4 kmh W 18.4 mph29.6 kmh 29.89 in1012.2 mb - 0.00 in0.0 mm 0.00 in0.0 mm
12:30 PM 61.6°F16.4°C 48.9°F9.4°C 63% 11.5 mph WNW18.5 kmh WNW 19.6 mph31.5 kmh 29.88 in1011.9 mb - 0.00 in0.0 mm 0.00 in0.0 mm
12:20 PM 61.2°F16.2°C 48.1°F8.9°C 62% 8.1 mph WSW13.0 kmh WSW 13.8 mph22.2 kmh 29.88 in1011.9 mb - 0.00 in0.0 mm 0.00 in0.0 mm
12:10 PM 60.8°F16.0°C 48.9°F9.4°C 65% 10.4 mph W16.7 kmh W 16.1 mph25.9 kmh 29.88 in1011.9 mb - 0.00 in0.0 mm 0.00 in0.0 mm
12:00 PM 60.1°F15.6°C 48.7°F9.3°C 66% 11.5 mph W18.5 kmh W 16.1 mph25.9 kmh 29.88 in1011.9 mb - 0.00 in0.0 mm 0.00 in0.0 mm
11:50 AM 59.9°F15.5°C 49.3°F9.6°C 68% 10.4 mph W16.7 kmh W 19.6 mph31.5 kmh 29.88 in1011.9 mb - 0.00 in0.0 mm 0.00 in0.0 mm
11:40 AM 59.8°F15.4°C 49.6°F9.8°C 69% 10.4 mph WSW16.7 kmh WSW 19.6 mph31.5 kmh 29.87 in1011.5 mb - 0.00 in0.0 mm 0.00 in0.0 mm
11:30 AM 59.3°F15.2°C 49.5°F9.7°C 70% 10.4 mph W16.7 kmh W 19.6 mph31.5 kmh 29.87 in1011.5 mb - 0.00 in0.0 mm 0.00 in0.0 mm
11:20 AM 58.6°F14.8°C 48.5°F9.2°C 69% 8.1 mph WNW13.0 kmh WNW 13.8 mph22.2 kmh 29.87 in1011.5 mb - 0.00 in0.0 mm 0.00 in0.0 mm
11:10 AM 58.5°F14.7°C 49.5°F9.7°C 72% 8.1 mph W13.0 kmh W 13.8 mph22.2 kmh 29.87 in1011.5 mb - 0.00 in0.0 mm 0.00 in0.0 mm
11:00 AM 58.5°F14.7°C 49.5°F9.7°C 72% 8.1 mph SSW13.0 kmh SSW 11.5 mph18.5 kmh 29.87 in1011.5 mb - 0.00 in0.0 mm 0.00 in0.0 mm
10:50 AM 58.0°F14.4°C 49.4°F9.7°C 73% 8.1 mph W13.0 kmh W 13.8 mph22.2 kmh 29.87 in1011.5 mb - 0.00 in0.0 mm 0.00 in0.0 mm
10:40 AM 57.7°F14.3°C 49.4°F9.7°C 74% 8.1 mph WSW13.0 kmh WSW 12.7 mph20.4 kmh 29.87 in1011.5 mb - 0.00 in0.0 mm 0.00 in0.0 mm
10:30 AM 57.3°F14.1°C 49.1°F9.5°C 74% 6.9 mph SW11.1 kmh SW 13.8 mph22.2 kmh 29.86 in1011.2 mb - 0.00 in0.0 mm 0.00 in0.0 mm
10:20 AM 57.4°F14.1°C 49.2°F9.6°C 74% 6.9 mph W11.1 kmh W 12.7 mph20.4 kmh 29.86 in1011.2 mb - 0.00 in0.0 mm 0.00 in0.0 mm
10:10 AM 56.9°F13.8°C 49.0°F9.4°C 75% 4.6 mph W7.4 kmh W 9.2 mph14.8 kmh 29.86 in1011.2 mb - 0.00 in0.0 mm 0.00 in0.0 mm
10:00 AM 56.6°F13.7°C 49.5°F9.7°C 77% 9.2 mph WNW14.8 kmh WNW 16.1 mph25.9 kmh 29.86 in1011.2 mb - 0.00 in0.0 mm 0.00 in0.0 mm
09:50 AM 56.0°F13.3°C 49.3°F9.6°C 78% 5.8 mph W9.3 kmh W 9.2 mph14.8 kmh 29.86 in1011.2 mb - 0.00 in0.0 mm 0.00 in0.0 mm
09:40 AM 55.3°F12.9°C 49.2°F9.6°C 80% 5.8 mph W9.3 kmh W 9.2 mph14.8 kmh 29.86 in1011.2 mb - 0.00 in0.0 mm 0.00 in0.0 mm
09:30 AM 55.0°F12.8°C 48.3°F9.1°C 78% 9.2 mph W14.8 kmh W 13.8 mph22.2 kmh 29.85 in1010.8 mb - 0.00 in0.0 mm 0.00 in0.0 mm
09:20 AM 55.6°F13.1°C 49.2°F9.6°C 79% 9.2 mph W14.8 kmh W 16.1 mph25.9 kmh 29.85 in1010.8 mb - 0.00 in0.0 mm 0.00 in0.0 mm
09:10 AM 55.8°F13.2°C 50.0°F10.0°C 81% 8.1 mph W13.0 kmh W 11.5 mph18.5 kmh 29.84 in1010.5 mb - 0.00 in0.0 mm 0.00 in0.0 mm
09:00 AM 55.2°F12.9°C 50.1°F10.1°C 83% 4.6 mph W7.4 kmh W 13.8 mph22.2 kmh 29.84 in1010.5 mb - 0.00 in0.0 mm 0.00 in0.0 mm
08:50 AM 54.5°F12.5°C 49.8°F9.9°C 84% 3.5 mph W5.6 kmh W 8.1 mph13.0 kmh 29.83 in1010.2 mb - 0.00 in0.0 mm 0.00 in0.0 mm
08:40 AM 54.2°F12.3°C 49.5°F9.7°C 84% 3.5 mph WSW5.6 kmh WSW 8.1 mph13.0 kmh 29.83 in1010.2 mb - 0.00 in0.0 mm 0.00 in0.0 mm
08:30 AM 53.6°F12.0°C 49.2°F9.6°C 85% 5.8 mph WSW9.3 kmh WSW 8.1 mph13.0 kmh 29.83 in1010.2 mb - 0.00 in0.0 mm 0.00 in0.0 mm
08:20 AM 53.2°F11.8°C 48.8°F9.3°C 85% 6.9 mph W11.1 kmh W 11.5 mph18.5 kmh 29.83 in1010.2 mb - 0.00 in0.0 mm 0.00 in0.0 mm
08:10 AM 52.9°F11.6°C 48.8°F9.3°C 86% 4.6 mph W7.4 kmh W 8.1 mph13.0 kmh 29.82 in1009.8 mb - 0.00 in0.0 mm 0.00 in0.0 mm
08:00 AM 52.6°F11.4°C 48.5°F9.2°C 86% 5.8 mph W9.3 kmh W 9.2 mph14.8 kmh 29.81 in1009.5 mb - 0.00 in0.0 mm 0.00 in0.0 mm
07:50 AM 52.3°F11.3°C 48.2°F9.0°C 86% 5.8 mph NW9.3 kmh NW 9.2 mph14.8 kmh 29.81 in1009.5 mb - 0.00 in0.0 mm 0.00 in0.0 mm
07:40 AM 51.7°F10.9°C 48.2°F9.0°C 88% 2.3 mph W3.7 kmh W 5.8 mph9.3 kmh 29.81 in1009.5 mb - 0.00 in0.0 mm 0.00 in0.0 mm
07:30 AM 51.3°F10.7°C 47.9°F8.8°C 88% 5.8 mph WNW9.3 kmh WNW 9.2 mph14.8 kmh 29.80 in1009.1 mb - 0.00 in0.0 mm 0.00 in0.0 mm
07:20 AM 50.8°F10.4°C 47.7°F8.7°C 89% 6.9 mph W11.1 kmh W 9.2 mph14.8 kmh 29.80 in1009.1 mb - 0.00 in0.0 mm 0.00 in0.0 mm
07:10 AM 50.3°F10.2°C 47.5°F8.6°C 90% Calm Calm 1.2 mph1.9 kmh 29.80 in1009.1 mb - 0.00 in0.0 mm 0.00 in0.0 mm
07:00 AM 49.8°F9.9°C 47.0°F8.3°C 90% Calm Calm -- 29.80 in1009.1 mb - 0.00 in0.0 mm 0.00 in0.0 mm
06:50 AM 49.6°F9.8°C 46.8°F8.2°C 90% Calm Calm 1.2 mph1.9 kmh 29.80 in1009.1 mb - 0.00 in0.0 mm 0.00 in0.0 mm
06:40 AM 49.4°F9.7°C 46.9°F8.3°C 91% Calm Calm 2.3 mph3.7 kmh 29.80 in1009.1 mb - 0.00 in0.0 mm 0.00 in0.0 mm
06:30 AM 49.4°F9.7°C 46.9°F8.3°C 91% 2.3 mph WNW3.7 kmh WNW 2.3 mph3.7 kmh 29.79 in1008.8 mb - 0.00 in0.0 mm 0.00 in0.0 mm
06:20 AM 49.6°F9.8°C 46.8°F8.2°C 90% 2.3 mph WSW3.7 kmh WSW 4.6 mph7.4 kmh 29.79 in1008.8 mb - 0.00 in0.0 mm 0.00 in0.0 mm
06:10 AM 49.7°F9.8°C 46.9°F8.3°C 90% 3.5 mph W5.6 kmh W 5.8 mph9.3 kmh 29.78 in1008.5 mb - 0.00 in0.0 mm 0.00 in0.0 mm
06:00 AM 49.8°F9.9°C 47.0°F8.3°C 90% 2.3 mph WSW3.7 kmh WSW 4.6 mph7.4 kmh 29.78 in1008.5 mb - 0.00 in0.0 mm 0.00 in0.0 mm
05:50 AM 50.1°F10.1°C 47.3°F8.5°C 90% 3.5 mph WSW5.6 kmh WSW 5.8 mph9.3 kmh 29.77 in1008.1 mb - 0.00 in0.0 mm 0.00 in0.0 mm
05:40 AM 50.3°F10.2°C 47.5°F8.6°C 90% 4.6 mph W7.4 kmh W 8.1 mph13.0 kmh 29.77 in1008.1 mb - 0.00 in0.0 mm 0.00 in0.0 mm
05:30 AM 50.4°F10.2°C 47.6°F8.7°C 90% 4.6 mph WSW7.4 kmh WSW 6.9 mph11.1 kmh 29.77 in1008.1 mb - 0.00 in0.0 mm 0.00 in0.0 mm
05:20 AM 50.6°F10.3°C 47.8°F8.8°C 90% 5.8 mph WSW9.3 kmh WSW 9.2 mph14.8 kmh 29.76 in1007.8 mb - 0.00 in0.0 mm 0.00 in0.0 mm
05:10 AM 50.7°F10.4°C 47.9°F8.8°C 90% 4.6 mph WSW7.4 kmh WSW 6.9 mph11.1 kmh 29.75 in1007.5 mb - 0.00 in0.0 mm 0.00 in0.0 mm
05:00 AM 50.7°F10.4°C 47.9°F8.8°C 90% 5.8 mph W9.3 kmh W 9.2 mph14.8 kmh 29.75 in1007.5 mb - 0.00 in0.0 mm 0.00 in0.0 mm
04:50 AM 50.4°F10.2°C 47.6°F8.7°C 90% 4.6 mph WSW7.4 kmh WSW 8.1 mph13.0 kmh 29.74 in1007.1 mb - 0.00 in0.0 mm 0.00 in0.0 mm
04:40 AM 50.3°F10.2°C 47.5°F8.6°C 90% 4.6 mph W7.4 kmh W 9.2 mph14.8 kmh 29.73 in1006.8 mb - 0.00 in0.0 mm 0.00 in0.0 mm
04:30 AM 50.4°F10.2°C 47.6°F8.7°C 90% 4.6 mph WSW7.4 kmh WSW 5.8 mph9.3 kmh 29.73 in1006.8 mb - 0.00 in0.0 mm 0.00 in0.0 mm
04:20 AM 50.7°F10.4°C 47.9°F8.8°C 90% 4.6 mph WSW7.4 kmh WSW 8.1 mph13.0 kmh 29.73 in1006.8 mb - 0.00 in0.0 mm 0.00 in0.0 mm
04:10 AM 50.9°F10.5°C 47.8°F8.8°C 89% 3.5 mph W5.6 kmh W 6.9 mph11.1 kmh 29.72 in1006.4 mb - 0.00 in0.0 mm 0.00 in0.0 mm
04:00 AM 51.0°F10.6°C 47.9°F8.8°C 89% 3.5 mph W5.6 kmh W 5.8 mph9.3 kmh 29.72 in1006.4 mb - 0.00 in0.0 mm 0.00 in0.0 mm
03:50 AM 51.0°F10.6°C 48.2°F9.0°C 90% 4.6 mph W7.4 kmh W 6.9 mph11.1 kmh 29.71 in1006.1 mb - 0.00 in0.0 mm 0.00 in0.0 mm
03:40 AM 51.0°F10.6°C 48.2°F9.0°C 90% 3.5 mph W5.6 kmh W 5.8 mph9.3 kmh 29.71 in1006.1 mb - 0.00 in0.0 mm 0.00 in0.0 mm
03:30 AM 51.1°F10.6°C 48.3°F9.1°C 90% 3.5 mph W5.6 kmh W 8.1 mph13.0 kmh 29.70 in1005.8 mb - 0.00 in0.0 mm 0.00 in0.0 mm
03:20 AM 51.3°F10.7°C 48.2°F9.0°C 89% 3.5 mph WSW5.6 kmh WSW 8.1 mph13.0 kmh 29.70 in1005.8 mb - 0.00 in0.0 mm 0.00 in0.0 mm
03:10 AM 51.5°F10.8°C 48.4°F9.1°C 89% 3.5 mph WSW5.6 kmh WSW 6.9 mph11.1 kmh 29.70 in1005.8 mb - 0.00 in0.0 mm 0.00 in0.0 mm
03:00 AM 51.6°F10.9°C 48.5°F9.2°C 89% 4.6 mph WSW7.4 kmh WSW 8.1 mph13.0 kmh 29.69 in1005.4 mb - 0.00 in0.0 mm 0.00 in0.0 mm
02:50 AM 52.0°F11.1°C 48.5°F9.2°C 88% 3.5 mph SW5.6 kmh SW 6.9 mph11.1 kmh 29.69 in1005.4 mb - 0.00 in0.0 mm 0.00 in0.0 mm
02:40 AM 52.4°F11.3°C 48.9°F9.4°C 88% 3.5 mph WNW5.6 kmh WNW 5.8 mph9.3 kmh 29.68 in1005.1 mb - 0.00 in0.0 mm 0.00 in0.0 mm
02:30 AM 52.6°F11.4°C 49.1°F9.5°C 88% 2.3 mph S3.7 kmh S 5.8 mph9.3 kmh 29.68 in1005.1 mb - 0.00 in0.0 mm 0.00 in0.0 mm
02:20 AM 52.5°F11.4°C 49.1°F9.5°C 88% 2.3 mph WSW3.7 kmh WSW 5.8 mph9.3 kmh 29.68 in1005.1 mb - 0.00 in0.0 mm 0.00 in0.0 mm
02:10 AM 52.6°F11.4°C 49.4°F9.7°C 89% 3.5 mph W5.6 kmh W 8.1 mph13.0 kmh 29.68 in1005.1 mb - 0.00 in0.0 mm 0.00 in0.0 mm
02:00 AM 52.8°F11.6°C 49.3°F9.6°C 88% 4.6 mph SSW7.4 kmh SSW 8.1 mph13.0 kmh 29.68 in1005.1 mb - 0.00 in0.0 mm 0.00 in0.0 mm
01:50 AM 52.8°F11.6°C 49.6°F9.8°C 89% 4.6 mph WSW7.4 kmh WSW 8.1 mph13.0 kmh 29.68 in1005.1 mb - 0.00 in0.0 mm 0.00 in0.0 mm
01:40 AM 52.5°F11.4°C 49.4°F9.7°C 89% 4.6 mph W7.4 kmh W 9.2 mph14.8 kmh 29.67 in1004.7 mb - 0.00 in0.0 mm 0.00 in0.0 mm
01:30 AM 52.5°F11.4°C 49.4°F9.7°C 89% 5.8 mph WSW9.3 kmh WSW 8.1 mph13.0 kmh 29.67 in1004.7 mb - 0.00 in0.0 mm 0.00 in0.0 mm
01:20 AM 52.6°F11.4°C 49.5°F9.7°C 89% 3.5 mph WSW5.6 kmh WSW 5.8 mph9.3 kmh 29.67 in1004.7 mb - 0.00 in0.0 mm 0.00 in0.0 mm
01:10 AM 52.9°F11.6°C 49.7°F9.8°C 89% 3.5 mph WNW5.6 kmh WNW 5.8 mph9.3 kmh 29.67 in1004.7 mb - 0.00 in0.0 mm 0.00 in0.0 mm
01:00 AM 53.1°F11.7°C 49.9°F9.9°C 89% 5.8 mph W9.3 kmh W 8.1 mph13.0 kmh 29.66 in1004.4 mb - 0.00 in0.0 mm 0.00 in0.0 mm
12:50 AM 53.3°F11.8°C 50.1°F10.1°C 89% 4.6 mph WSW7.4 kmh WSW 6.9 mph11.1 kmh 29.66 in1004.4 mb - 0.00 in0.0 mm 0.00 in0.0 mm
12:40 AM 53.5°F11.9°C 50.4°F10.2°C 89% 5.8 mph WSW9.3 kmh WSW 8.1 mph13.0 kmh 29.65 in1004.1 mb - 0.00 in0.0 mm 0.00 in0.0 mm
12:30 AM 53.9°F12.2°C 51.0°F10.6°C 90% 5.8 mph SW9.3 kmh SW 8.1 mph13.0 kmh 29.65 in1004.1 mb - 0.00 in0.0 mm 0.00 in0.0 mm
12:20 AM 54.3°F12.4°C 51.4°F10.8°C 90% 4.6 mph WSW7.4 kmh WSW 6.9 mph11.1 kmh 29.65 in1004.1 mb - 0.00 in0.0 mm 0.00 in0.0 mm
12:10 AM 54.8°F12.7°C 51.7°F10.9°C 89% 3.5 mph W5.6 kmh W 5.8 mph9.3 kmh 29.65 in1004.1 mb - 0.00 in0.0 mm 0.00 in0.0 mm
12:00 AM 55.2°F12.9°C 52.0°F11.1°C 89% 4.6 mph W7.4 kmh W 6.9 mph11.1 kmh 29.64 in1003.7 mb - 0.00 in0.0 mm 0.00 in0.0 mm